Time;durP1;ratioP1;P1;durP2;ratioP2;P2;SDS_P1;SDS_P2;PMS_P1;PMS_P2;Temp;Humidity;BMP_temperature;BMP_pressure;BME280_temperature;BME280_humidity;BME280_pressure;Samples;Min_cycle;Max_cycle;Signal;HPM_P1;HPM_P2
2023/10/01 00:01:45;;;;;;;6.55;4.57;;;;;;;15.48;100.00;93351.31;5014462;28;20038;-80
2023/10/01 00:04:11;;;;;;;7.10;4.78;;;;;;;15.43;100.00;93340.88;5014673;28;20053;-81
2023/10/01 00:06:38;;;;;;;6.97;4.97;;;;;;;15.43;100.00;93354.06;5014104;28;20536;-81
2023/10/01 00:09:07;;;;;;;6.65;4.90;;;;;;;15.39;100.00;93347.81;5015144;28;20045;-81
2023/10/01 00:11:38;;;;;;;9.90;5.22;;;;;;;15.38;100.00;93351.56;5014780;28;20096;-80
2023/10/01 00:14:07;;;;;;;8.98;5.78;;;;;;;15.36;100.00;93345.78;5014069;28;20142;-78
2023/10/01 00:16:33;;;;;;;6.53;4.88;;;;;;;15.36;100.00;93348.41;5014351;28;20559;-81
2023/10/01 00:18:59;;;;;;;7.93;4.90;;;;;;;15.36;100.00;93351.06;5013720;28;20029;-80
2023/10/01 00:21:27;;;;;;;6.97;4.85;;;;;;;15.35;100.00;93344.22;5014820;28;20239;-80
2023/10/01 00:23:54;;;;;;;6.45;5.30;;;;;;;15.35;100.00;93347.63;5014352;28;20112;-81
2023/10/01 00:26:20;;;;;;;6.40;5.13;;;;;;;15.35;100.00;93352.13;5014389;28;20034;-79
2023/10/01 00:28:46;;;;;;;6.53;5.10;;;;;;;15.33;100.00;93349.78;5014368;28;20457;-81
2023/10/01 00:31:12;;;;;;;8.10;5.47;;;;;;;15.34;100.00;93348.72;5015212;28;20037;-81
2023/10/01 00:33:37;;;;;;;7.13;5.28;;;;;;;15.33;100.00;93349.78;5014234;28;20389;-81
2023/10/01 00:36:03;;;;;;;8.52;5.57;;;;;;;15.34;100.00;93345.28;5029846;28;20376;-81
2023/10/01 00:38:29;;;;;;;10.93;5.65;;;;;;;15.33;100.00;93343.72;5030436;28;20040;-81
2023/10/01 00:40:55;;;;;;;6.20;5.30;;;;;;;15.31;100.00;93346.66;5014692;28;20029;-80
2023/10/01 00:43:29;;;;;;;8.30;5.07;;;;;;;15.30;100.00;93344.31;5015221;28;20069;-80
2023/10/01 00:45:56;;;;;;;6.97;5.72;;;;;;;15.29;100.00;93338.25;5014257;28;20393;-80
2023/10/01 00:48:23;;;;;;;11.85;5.72;;;;;;;15.23;100.00;93333.38;5013288;28;20030;-80
2023/10/01 00:50:54;;;;;;;8.80;5.88;;;;;;;15.22;100.00;93347.63;5014150;28;20144;-80
2023/10/01 00:53:20;;;;;;;12.23;6.30;;;;;;;15.11;100.00;93339.16;5014201;28;20049;-80
2023/10/01 00:55:48;;;;;;;7.78;5.45;;;;;;;15.13;100.00;93343.06;5014586;28;20062;-80
2023/10/01 00:58:15;;;;;;;7.50;5.00;;;;;;;15.12;100.00;93348.63;5014359;28;20030;-80
2023/10/01 01:00:42;;;;;;;8.25;5.38;;;;;;;15.11;100.00;93345.19;5013781;28;20034;-80
2023/10/01 01:03:09;;;;;;;9.40;5.57;;;;;;;15.13;100.00;93335.16;5013394;28;20485;-81
2023/10/01 01:05:37;;;;;;;9.95;5.53;;;;;;;15.12;100.00;93344.13;5029704;28;20062;-80
2023/10/01 01:08:20;;;;;;;10.02;5.85;;;;;;;15.14;100.00;93339.34;4997368;28;20038;-80
2023/10/01 01:10:49;;;;;;;8.15;5.45;;;;;;;15.14;100.00;93343.84;5011296;28;20137;-79
2023/10/01 01:13:16;;;;;;;8.45;5.50;;;;;;;15.12;100.00;93344.13;5013553;28;20030;-81
2023/10/01 01:15:45;;;;;;;9.10;5.57;;;;;;;15.12;100.00;93343.34;5029634;28;20026;-81
2023/10/01 01:18:13;;;;;;;7.20;5.85;;;;;;;15.09;100.00;93339.44;5014155;28;20046;-81
2023/10/01 01:20:46;;;;;;;8.85;5.85;;;;;;;15.10;100.00;93338.34;5014220;28;20169;-82
2023/10/01 01:23:15;;;;;;;;;;;;;;;15.08;100.00;93332.59;5014417;28;20109;-81
2023/10/01 01:25:41;;;;;;;6.35;5.10;;;;;;;15.06;100.00;93331.31;5029540;28;19927;-81
2023/10/01 01:28:12;;;;;;;8.75;4.90;;;;;;;15.04;100.00;93339.53;5028306;28;20455;-81
2023/10/01 01:30:42;;;;;;;10.48;5.03;;;;;;;15.04;100.00;93342.19;5011976;28;20068;-81
2023/10/01 01:33:12;;;;;;;7.57;4.88;;;;;;;15.02;100.00;93332.97;5015257;28;20026;-80
2023/10/01 01:35:39;;;;;;;6.78;5.07;;;;;;;14.97;100.00;93329.38;5016914;28;20525;-80
2023/10/01 01:38:07;;;;;;;7.70;4.95;;;;;;;14.96;100.00;93327.03;5015873;28;20433;-81
2023/10/01 01:40:36;;;;;;;8.18;5.18;;;;;;;14.94;100.00;93329.16;5017096;28;20038;-79
2023/10/01 01:43:15;;;;;;;6.65;4.90;;;;;;;14.92;100.00;93326.03;5017366;28;20124;-81
2023/10/01 01:45:45;;;;;;;6.60;4.65;;;;;;;14.88;100.00;93327.69;5015528;28;20042;-80
2023/10/01 01:51:00;;;;;;;9.43;4.85;;;;;;;14.88;100.00;93323.22;5016707;28;20034;-80
2023/10/01 01:53:35;;;;;;;10.00;4.68;;;;;;;14.81;100.00;93316.75;5010363;28;20052;-81
2023/10/01 01:56:09;;;;;;;6.15;4.55;;;;;;;14.86;100.00;93330.63;5000240;28;20036;-81
2023/10/01 01:58:37;;;;;;;6.85;4.60;;;;;;;14.86;100.00;93324.56;5015964;28;20046;-81
2023/10/01 02:01:17;;;;;;;8.52;4.80;;;;;;;14.84;100.00;93326.72;4999338;28;20026;-79
2023/10/01 02:03:46;;;;;;;8.25;4.72;;;;;;;14.83;100.00;93333.84;5016312;28;20072;-80
2023/10/01 02:06:13;;;;;;;9.30;5.22;;;;;;;14.82;100.00;93337.56;5014775;28;20533;-81
2023/10/01 02:08:56;;;;;;;7.63;4.70;;;;;;;14.82;100.00;93334.16;5016615;28;20068;-79
2023/10/01 02:11:22;;;;;;;6.93;4.70;;;;;;;14.81;100.00;93340.47;5014717;28;20053;-80
2023/10/01 02:13:54;;;;;;;6.63;5.15;;;;;;;14.80;100.00;93342.34;5031320;28;20401;-80
2023/10/01 02:19:14;;;;;;;9.65;5.53;;;;;;;14.77;100.00;93330.53;5016014;28;20243;-79
2023/10/01 02:22:24;;;;;;;6.65;5.47;;;;;;;14.77;100.00;93327.91;5015334;28;20061;-80
2023/10/01 02:24:56;;;;;;;10.82;5.47;;;;;;;14.74;100.00;93333.72;5002245;28;20243;-81
2023/10/01 02:27:28;;;;;;;7.60;6.18;;;;;;;14.77;100.00;93332.34;5008719;28;20038;-81
2023/10/01 02:30:12;;;;;;;;;;;;;;;14.77;100.00;93327.91;5016160;28;20046;-81
2023/10/01 02:32:49;;;;;;;11.63;6.50;;;;;;;14.78;100.00;93329.44;5014457;28;19952;-81
2023/10/01 02:35:35;;;;;;;8.88;6.38;;;;;;;14.78;100.00;93326.03;5015456;28;20076;-80
2023/10/01 02:38:05;;;;;;;11.55;6.80;;;;;;;14.77;100.00;93317.34;5009093;28;20052;-80
2023/10/01 02:40:36;;;;;;;7.97;6.22;;;;;;;14.77;100.00;93321.81;5014527;28;20034;-80
2023/10/01 02:43:06;;;;;;;10.70;7.03;;;;;;;14.76;100.00;93321.03;5010027;28;20100;-80
2023/10/01 02:45:32;;;;;;;11.93;7.03;;;;;;;14.74;100.00;93328.47;5007966;28;20280;-81
2023/10/01 02:48:13;;;;;;;9.02;6.63;;;;;;;14.74;100.00;93323.19;5015666;28;20137;-80
2023/10/01 02:50:52;;;;;;;10.63;7.07;;;;;;;14.73;100.00;93323.50;5028540;28;20127;-80
2023/10/01 02:53:22;;;;;;;10.80;7.10;;;;;;;14.72;100.00;93314.78;5015185;28;20056;-80
2023/10/01 02:55:51;;;;;;;10.70;7.60;;;;;;;14.73;100.00;93321.63;5010170;28;20044;-80
2023/10/01 02:58:20;;;;;;;12.43;7.07;;;;;;;14.70;100.00;93316.97;5011104;28;20057;-80
2023/10/01 03:00:47;;;;;;;10.60;7.10;;;;;;;14.70;100.00;93314.31;5011490;28;20113;-80
2023/10/01 03:03:17;;;;;;;9.80;6.75;;;;;;;14.73;100.00;93319.00;5017112;28;20120;-80
2023/10/01 03:05:46;;;;;;;10.80;7.82;;;;;;;14.72;100.00;93314.78;5009144;28;20089;-79
2023/10/01 03:11:04;;;;;;;10.82;7.47;;;;;;;14.72;100.00;93314.78;5015503;28;20102;-79
2023/10/01 03:13:31;;;;;;;10.85;7.40;;;;;;;14.71;100.00;93315.88;5013318;28;20366;-80
2023/10/01 03:18:44;;;;;;;8.88;6.32;;;;;;;14.69;100.00;93314.59;5011823;28;20038;-81
2023/10/01 03:22:12;;;;;;;8.60;5.70;;;;;;;14.65;100.00;93314.38;5014153;28;20551;-80
2023/10/01 03:24:03;;;;;;;8.98;5.43;;;;;;;14.63;100.00;93313.91;5013828;28;20493;-81
2023/10/01 03:26:33;;;;;;;7.47;5.00;;;;;;;14.61;100.00;93318.66;5014585;28;20477;-79
2023/10/01 03:32:26;;;;;;;10.10;6.10;;;;;;;14.54;100.00;93312.97;4993352;28;20573;-80
2023/10/01 03:34:46;;;;;;;10.85;6.30;;;;;;;14.54;100.00;93313.78;5010709;28;20564;-79
2023/10/01 03:37:19;;;;;;;7.45;5.55;;;;;;;14.50;100.00;93312.78;5015223;28;20401;-80
2023/10/01 03:39:46;;;;;;;7.80;5.25;;;;;;;14.47;100.00;93309.94;5014335;28;20092;-80
2023/10/01 03:42:13;;;;;;;7.68;5.18;;;;;;;14.47;100.00;93315.22;5012815;28;20117;-81
2023/10/01 03:47:24;;;;;;;8.63;4.70;;;;;;;14.43;100.00;93308.94;5013478;28;20033;-80
2023/10/01 03:49:54;;;;;;;7.13;4.85;;;;;;;14.36;100.00;93317.22;5029969;28;20038;-81
2023/10/01 03:52:21;;;;;;;9.82;5.15;;;;;;;14.34;100.00;93309.63;5013474;28;20167;-81
2023/10/01 03:55:39;;;;;;;9.40;4.95;;;;;;;14.32;100.00;93314.41;5014539;28;20267;-81
2023/10/01 03:57:52;;;;;;;7.43;5.13;;;;;;;14.30;100.00;93311.28;5010150;28;20109;-80
2023/10/01 04:00:28;;;;;;;8.77;4.68;;;;;;;14.27;100.00;93311.84;5014340;28;20038;-81
2023/10/01 04:02:54;;;;;;;8.80;4.47;;;;;;;14.28;100.00;93302.88;5012923;28;20046;-80
2023/10/01 04:05:30;;;;;;;8.27;4.90;;;;;;;14.28;100.00;93307.38;5013410;28;20498;-80
2023/10/01 04:07:59;;;;;;;9.27;4.88;;;;;;;14.25;100.00;93297.41;5015352;28;20037;-80
2023/10/01 04:13:01;;;;;;;7.88;4.65;;;;;;;14.24;100.00;93303.75;5010322;28;20565;-80
2023/10/01 04:15:28;;;;;;;8.82;4.10;;;;;;;14.24;100.00;93312.41;5006346;28;20038;-80
2023/10/01 04:21:17;;;;;;;8.38;4.53;;;;;;;14.14;100.00;93321.28;5006104;28;20041;-81
2023/10/01 04:23:41;;;;;;;7.57;5.03;;;;;;;14.10;100.00;93325.53;5007048;28;20089;-79
2023/10/01 04:26:13;;;;;;;7.65;4.32;;;;;;;14.06;100.00;93326.41;5013984;28;20042;-80
2023/10/01 04:28:46;;;;;;;8.30;4.65;;;;;;;14.05;100.00;93328.25;5006902;28;20037;-80
2023/10/01 04:31:18;;;;;;;7.60;4.05;;;;;;;14.02;100.00;93331.44;4997202;28;20034;-81
2023/10/01 04:33:47;;;;;;;7.70;4.30;;;;;;;14.00;100.00;93338.06;5013580;28;20038;-80
2023/10/01 04:36:16;;;;;;;8.82;4.70;;;;;;;13.97;100.00;93342.06;5013479;28;20040;-79
2023/10/01 04:38:48;;;;;;;6.97;4.43;;;;;;;13.94;100.00;93340.78;5007997;28;20053;-80
2023/10/01 04:41:18;;;;;;;8.07;4.70;;;;;;;13.92;100.00;93340.28;5013918;28;20046;-80
2023/10/01 04:44:06;;;;;;;11.13;4.60;;;;;;;13.91;100.00;93337.94;5012105;28;20026;-80
2023/10/01 04:46:37;;;;;;;8.90;4.93;;;;;;;13.90;100.00;93342.41;5014937;28;20077;-81
2023/10/01 04:49:26;;;;;;;7.78;4.75;;;;;;;13.90;100.00;93342.41;5014291;28;20038;-81
2023/10/01 04:51:56;;;;;;;7.10;4.60;;;;;;;13.88;100.00;93352.44;5012404;28;20109;-81
2023/10/01 04:54:22;;;;;;;7.93;4.70;;;;;;;13.88;100.00;93354.31;5028876;28;20038;-81
2023/10/01 04:56:48;;;;;;;9.60;5.07;;;;;;;13.87;100.00;93353.53;5008907;28;20057;-82
2023/10/01 04:59:15;;;;;;;6.82;4.60;;;;;;;13.84;100.00;93354.06;5015501;28;20044;-81
2023/10/01 05:01:41;;;;;;;7.35;5.15;;;;;;;13.84;100.00;93359.34;5015006;28;20391;-80
2023/10/01 05:04:11;;;;;;;8.70;5.35;;;;;;;13.83;100.00;93357.78;5012915;28;20054;-81
2023/10/01 05:06:40;;;;;;;9.30;5.30;;;;;;;13.83;100.00;93363.06;5030045;28;20470;-81
2023/10/01 05:09:07;;;;;;;6.75;4.63;;;;;;;13.84;100.00;93364.59;5016972;28;20081;-81
2023/10/01 05:11:34;;;;;;;9.15;5.10;;;;;;;13.86;100.00;93365.09;5018015;28;20046;-81
2023/10/01 05:14:04;;;;;;;10.40;5.10;;;;;;;13.87;100.00;93371.16;5017140;28;20038;-81
2023/10/01 05:16:31;;;;;;;7.90;5.15;;;;;;;13.88;100.00;93372.72;5001600;28;20087;-81
2023/10/01 05:19:10;;;;;;;8.93;5.88;;;;;;;13.88;100.00;93376.13;5017601;28;20037;-81
2023/10/01 05:21:41;;;;;;;9.52;5.90;;;;;;;13.88;100.00;93372.72;5011302;28;20034;-81
2023/10/01 05:24:09;;;;;;;8.65;5.53;;;;;;;13.84;100.00;93379.63;5017444;28;20037;-81
2023/10/01 05:26:35;;;;;;;8.77;5.43;;;;;;;13.83;100.00;93376.22;5018331;28;20094;-81
2023/10/01 05:29:05;;;;;;;8.90;5.82;;;;;;;13.83;100.00;93376.22;5018165;28;20057;-81
2023/10/01 05:31:34;;;;;;;10.30;6.43;;;;;;;13.83;100.00;93376.22;5018195;28;20069;-81
2023/10/01 05:34:01;;;;;;;8.23;5.60;;;;;;;13.85;100.00;93384.59;5017600;28;20053;-80
2023/10/01 05:36:26;;;;;;;9.57;5.63;;;;;;;13.88;100.00;93384.03;5017765;28;20401;-81
2023/10/01 05:38:53;;;;;;;9.68;6.13;;;;;;;13.90;100.00;93383.75;5017918;28;20128;-80
2023/10/01 05:41:29;;;;;;;8.15;6.07;;;;;;;13.93;100.00;93391.84;5017324;28;20121;-79
2023/10/01 05:43:56;;;;;;;10.20;6.40;;;;;;;14.08;100.00;93396.13;5018181;28;20501;-81
2023/10/01 05:46:22;;;;;;;10.27;6.38;;;;;;;14.27;100.00;93398.75;5018441;28;20033;-82
2023/10/01 05:48:50;;;;;;;8.70;6.47;;;;;;;14.60;100.00;93392.75;5018111;28;20037;-82
2023/10/01 05:51:18;;;;;;;9.40;5.63;;;;;;;15.04;100.00;93389.63;5014953;28;20060;-81
2023/10/01 05:53:50;;;;;;;7.55;5.35;;;;;;;15.53;100.00;93401.34;5013312;28;20101;-81
2023/10/01 05:56:17;;;;;;;9.00;5.78;;;;;;;15.96;100.00;93397.63;5017390;28;20069;-81
2023/10/01 05:58:43;;;;;;;8.00;5.70;;;;;;;16.30;100.00;93391.06;5017295;28;20034;-82
2023/10/01 06:01:16;;;;;;;9.93;5.55;;;;;;;16.79;100.00;93405.25;5018018;28;20036;-81
2023/10/01 06:03:43;;;;;;;8.55;5.47;;;;;;;17.17;100.00;93404.84;5014575;28;20145;-81
2023/10/01 06:06:13;;;;;;;6.25;4.55;;;;;;;17.56;100.00;93408.59;5013428;28;20057;-81
2023/10/01 06:08:49;;;;;;;11.25;5.20;;;;;;;17.88;100.00;93405.59;5014600;28;20087;-81
2023/10/01 06:11:38;;;;;;;8.45;5.15;;;;;;;18.26;100.00;93406.88;5017627;28;20034;-82
2023/10/01 06:14:05;;;;;;;8.80;5.20;;;;;;;18.65;100.00;93410.47;5014560;28;20042;-81
2023/10/01 06:16:37;;;;;;;7.45;4.70;;;;;;;18.96;100.00;93406.84;5012060;28;20026;-82
2023/10/01 06:19:04;;;;;;;9.13;5.10;;;;;;;19.27;100.00;93418.03;5010531;28;20109;-82
2023/10/01 06:21:31;;;;;;;8.55;4.97;;;;;;;19.62;100.00;93420.53;5015237;28;20397;-80
2023/10/01 06:23:59;;;;;;;8.18;4.60;;;;;;;19.96;100.00;93434.78;5014530;28;20048;-86
2023/10/01 06:26:33;;;;;;;7.13;5.03;;;;;;;20.14;100.00;93425.59;5012433;28;20045;-86
2023/10/01 06:29:02;;;;;;;7.90;4.63;;;;;;;20.41;100.00;93439.50;5011819;28;20180;-84
2023/10/01 06:31:57;;;;;;;8.27;5.07;;;;;;;20.64;100.00;93429.31;5013681;28;20088;-82
2023/10/01 06:34:26;;;;;;;6.93;5.20;;;;;;;21.11;100.00;93431.72;5014744;28;20041;-83
2023/10/01 06:36:58;;;;;;;7.10;4.80;;;;;;;21.67;100.00;93433.19;4994371;28;20069;-83
2023/10/01 06:39:24;;;;;;;;;;;;;;;22.02;100.00;93438.81;5013925;28;20472;-84
2023/10/01 06:41:52;;;;;;;7.50;4.63;;;;;;;22.22;100.00;93442.50;5017283;28;20301;-84
2023/10/01 06:44:21;;;;;;;8.80;4.78;;;;;;;22.49;100.00;93435.66;5017586;28;20616;-85
2023/10/01 06:46:48;;;;;;;9.43;4.60;;;;;;;22.73;100.00;93444.72;5015849;28;20091;-86
2023/10/01 06:49:18;;;;;;;7.40;4.63;;;;;;;22.86;100.00;93440.91;5016608;28;20037;-85
2023/10/01 06:51:45;;;;;;;7.55;4.45;;;;;;;22.84;100.00;93438.56;4999298;28;20044;-84
2023/10/01 06:54:14;;;;;;;6.90;4.38;;;;;;;22.72;100.00;93441.28;5016417;28;20029;-84
2023/10/01 06:56:47;;;;;;;7.65;4.88;;;;;;;22.57;100.00;93445.44;5019714;28;20034;-83
2023/10/01 06:59:17;;;;;;;10.85;4.80;;;;;;;22.80;100.00;93442.25;5016707;28;20497;-84
2023/10/01 07:01:50;;;;;;;7.30;4.63;;;;;;;23.06;100.00;93450.63;5033107;28;20026;-83
2023/10/01 07:04:23;;;;;;;9.23;4.70;;;;;;;22.63;100.00;93456.66;5016310;28;20513;-84
2023/10/01 07:06:50;;;;;;;7.38;5.13;;;;;;;22.73;100.00;93450.06;5017670;28;20044;-83
2023/10/01 07:09:32;;;;;;;10.50;4.72;;;;;;;23.00;100.00;93448.56;5013475;28;20038;-84
2023/10/01 07:12:03;;;;;;;8.18;4.80;;;;;;;23.33;100.00;93461.66;5028216;28;20045;-84
2023/10/01 07:14:43;;;;;;;8.35;5.00;;;;;;;23.15;100.00;93455.06;5013063;28;20030;-82
2023/10/01 07:17:15;;;;;;;8.27;5.15;;;;;;;23.05;100.00;93462.41;5013853;28;20042;-84
2023/10/01 07:19:42;;;;;;;7.53;4.72;;;;;;;23.05;100.00;93457.09;5030837;28;20034;-85
2023/10/01 07:22:14;;;;;;;8.38;4.80;;;;;;;22.67;100.00;93457.53;5015546;28;20504;-85
2023/10/01 07:24:43;;;;;;;11.23;4.78;;;;;;;22.46;100.00;93468.38;5012629;28;20029;-83
2023/10/01 07:27:11;;;;;;;7.70;5.03;;;;;;;22.32;100.00;93473.28;5022352;28;20037;-84
2023/10/01 07:29:41;;;;;;;7.57;4.88;;;;;;;22.15;100.00;93463.59;5014502;28;20343;-86
2023/10/01 07:32:12;;;;;;;10.23;5.07;;;;;;;22.17;100.00;93469.38;5028904;28;20079;-84
2023/10/01 07:34:45;;;;;;;8.30;4.65;;;;;;;21.79;100.00;93463.25;5027973;28;20037;-83
2023/10/01 07:37:11;;;;;;;8.45;4.53;;;;;;;21.65;100.00;93467.38;5014148;28;20037;-82
2023/10/01 07:39:38;;;;;;;9.43;5.00;;;;;;;21.42;100.00;93475.75;5030962;28;20311;-84
2023/10/01 07:42:10;;;;;;;7.25;4.88;;;;;;;21.00;100.00;93471.25;5013910;28;20045;-83
2023/10/01 07:44:36;;;;;;;8.38;4.65;;;;;;;21.02;100.00;93478.16;5009678;28;20522;-82
2023/10/01 07:47:03;;;;;;;8.10;4.55;;;;;;;20.83;100.00;93482.06;5008948;28;20582;-84
2023/10/01 07:49:46;;;;;;;8.30;4.65;;;;;;;21.25;100.00;93475.91;5010266;28;20491;-83
2023/10/01 07:52:19;;;;;;;7.18;4.53;;;;;;;21.42;100.00;93478.41;5006491;28;20065;-84
2023/10/01 07:54:49;;;;;;;8.82;4.53;;;;;;;20.97;100.00;93493.22;5011471;28;20049;-81
2023/10/01 07:57:28;;;;;;;8.15;4.90;;;;;;;20.93;100.00;93489.66;5010520;28;20034;-80
2023/10/01 08:00:25;;;;;;;7.25;4.53;;;;;;;21.44;100.00;93491.41;5010563;28;20033;-80
2023/10/01 08:05:33;;;;;;;9.35;5.05;;;;;;;21.61;100.00;93496.53;5009704;28;20057;-81
2023/10/01 08:07:59;;;;;;;8.55;5.30;;;;;;;21.39;100.00;93493.16;5013942;28;20070;-80
2023/10/01 08:10:29;;;;;;;7.75;4.75;;;;;;;21.34;100.00;93493.34;5011034;28;20051;-80
2023/10/01 08:15:29;;;;;;;8.77;4.70;;;;;;;21.36;100.00;93496.44;5022240;28;20119;-81
2023/10/01 08:17:55;;;;;;;8.20;5.05;;;;;;;21.16;100.00;93499.94;4998013;28;20041;-80
2023/10/01 08:20:22;;;;;;;9.20;5.18;;;;;;;21.26;100.00;93499.53;5014106;28;20392;-81
2023/10/01 08:25:54;;;;;;;10.45;5.22;;;;;;;21.72;100.00;93499.56;4972497;28;20445;-80
2023/10/01 08:28:29;;;;;;;8.70;5.20;;;;;;;21.35;100.00;93508.22;5005235;28;20069;-80
2023/10/01 08:31:01;;;;;;;10.65;4.93;;;;;;;21.54;100.00;93501.63;5009003;28;20042;-80
2023/10/01 08:33:32;;;;;;;;;;;;;;;21.34;100.00;93506.66;5014833;28;20072;-80
2023/10/01 08:36:36;;;;;;;7.53;5.15;;;;;;;21.36;100.00;93507.09;5015316;28;19914;-79
2023/10/01 08:41:50;;;;;;;10.27;5.45;;;;;;;21.42;100.00;93505.06;5009243;28;20034;-81
2023/10/01 08:44:30;;;;;;;11.82;6.35;;;;;;;21.53;100.00;93508.09;5018083;28;20076;-81
2023/10/01 08:47:21;;;;;;;9.70;6.57;;;;;;;21.52;100.00;93503.84;5018860;28;20045;-81
2023/10/01 08:49:51;;;;;;;13.20;6.25;;;;;;;21.51;100.00;93512.97;5006838;28;20069;-80
2023/10/01 08:52:25;;;;;;;9.18;6.50;;;;;;;21.82;100.00;93509.81;5018452;28;20121;-81
2023/10/01 08:54:53;;;;;;;8.52;5.32;;;;;;;22.33;100.00;93510.28;5018466;28;20493;-81
2023/10/01 08:57:36;;;;;;;7.68;4.95;;;;;;;22.49;100.00;93513.03;5017046;28;20030;-81
2023/10/01 09:00:20;;;;;;;10.13;5.35;;;;;;;22.08;100.00;93506.81;5007865;28;20150;-81
2023/10/01 09:02:50;;;;;;;7.63;4.90;;;;;;;22.28;100.00;93512.41;5033355;28;20069;-82
2023/10/01 09:05:23;;;;;;;8.35;4.75;;;;;;;21.65;100.00;93504.66;5033188;28;20054;-81
2023/10/01 09:08:14;;;;;;;8.40;4.75;;;;;;;21.78;100.00;93508.91;5011103;28;20069;-81
2023/10/01 09:10:39;;;;;;;7.70;5.00;;;;;;;21.60;100.00;93506.44;5018043;28;20473;-80
2023/10/01 09:13:08;;;;;;;8.10;5.40;;;;;;;21.96;100.00;93504.16;5017161;28;20041;-81
2023/10/01 09:15:38;;;;;;;10.23;4.90;;;;;;;22.06;100.00;93502.94;5014128;28;20160;-81
2023/10/01 09:18:20;;;;;;;9.50;4.70;;;;;;;22.47;100.00;93509.16;5014888;28;20053;-81
2023/10/01 09:23:56;;;;;;;9.85;5.22;;;;;;;22.04;100.00;93516.56;5013861;28;20520;-80
2023/10/01 09:26:39;;;;;;;9.85;4.97;;;;;;;22.16;100.00;93516.59;5015991;28;20034;-83
2023/10/01 09:29:25;;;;;;;9.02;6.88;;;;;;;22.28;100.00;93521.19;5013133;28;20048;-78
2023/10/01 09:31:58;;;;;;;9.52;6.03;;;;;;;22.31;100.00;93519.72;5009089;28;20111;-79
2023/10/01 09:34:34;;;;;;;11.32;5.88;;;;;;;21.87;100.00;93524.81;5017132;28;20091;-82
2023/10/01 09:37:17;;;;;;;11.38;5.90;;;;;;;22.06;100.00;93516.25;5011826;28;20096;-82
2023/10/01 09:39:43;;;;;;;9.02;5.47;;;;;;;22.23;100.00;93518.75;5015523;28;20132;-82
2023/10/01 09:42:28;;;;;;;13.55;6.03;;;;;;;22.13;100.00;93509.25;5018742;28;20531;-82
2023/10/01 09:44:55;;;;;;;11.35;6.32;;;;;;;22.32;100.00;93526.63;5033672;28;20125;-81
2023/10/01 09:47:25;;;;;;;9.25;5.68;;;;;;;22.20;100.00;93520.16;5016475;28;20511;-83
2023/10/01 09:49:52;;;;;;;7.32;4.97;;;;;;;22.21;100.00;93524.41;5018987;28;20053;-80
2023/10/01 09:52:48;;;;;;;9.95;5.75;;;;;;;21.91;100.00;93517.69;5015327;28;20038;-81
2023/10/01 09:55:26;;;;;;;11.68;5.90;;;;;;;22.01;100.00;93523.34;5027070;28;20033;-81
2023/10/01 09:57:54;;;;;;;10.15;6.00;;;;;;;22.19;100.00;93523.91;5019646;28;20072;-81
2023/10/01 10:00:21;;;;;;;8.60;5.63;;;;;;;22.25;100.00;93521.84;5015704;28;20389;-81
2023/10/01 10:02:53;;;;;;;9.63;5.55;;;;;;;22.33;100.00;93520.94;5013263;28;20098;-80
2023/10/01 10:05:24;;;;;;;;;;;;;;;22.14;100.00;93524.16;5016510;28;20420;-79
2023/10/01 10:07:55;;;;;;;11.23;5.90;;;;;;;21.82;100.00;93526.56;5031071;28;19929;-80
2023/10/01 10:10:25;;;;;;;10.45;6.38;;;;;;;21.93;100.00;93523.44;5012334;28;20052;-80
2023/10/01 10:12:54;;;;;;;10.18;6.50;;;;;;;22.03;100.00;93525.69;5012407;28;20045;-80
2023/10/01 10:15:57;;;;;;;9.80;6.63;;;;;;;22.04;100.00;93521.91;5011603;28;20065;-81
2023/10/01 10:18:23;;;;;;;9.93;6.68;;;;;;;22.11;100.00;93527.50;5009295;28;20046;-83
2023/10/01 10:20:59;;;;;;;10.02;7.05;;;;;;;22.19;100.00;93521.25;5028953;28;20034;-84
2023/10/01 10:23:31;;;;;;;9.13;6.82;;;;;;;22.36;100.00;93524.81;5014562;28;20116;-83
2023/10/01 10:26:38;;;;;;;8.63;7.18;;;;;;;22.25;100.00;93521.84;5014906;28;20045;-83
2023/10/01 10:29:10;;;;;;;11.10;6.75;;;;;;;21.68;100.00;93515.41;5012463;28;20042;-82
2023/10/01 10:31:36;;;;;;;12.25;7.47;;;;;;;21.22;100.00;93519.94;4996865;28;20038;-83
2023/10/01 10:34:21;;;;;;;11.18;7.43;;;;;;;21.35;100.00;93512.78;5002371;28;20026;-83
2023/10/01 10:36:53;;;;;;;12.18;8.10;;;;;;;21.27;100.00;93517.06;5010298;28;20038;-83
2023/10/01 10:39:50;;;;;;;10.98;8.80;;;;;;;20.98;100.00;93520.59;5012850;28;20129;-83
2023/10/01 10:42:29;;;;;;;10.90;8.15;;;;;;;20.70;100.00;93510.50;5007074;28;20045;-83
2023/10/01 10:45:23;;;;;;;14.52;9.55;;;;;;;21.06;100.00;93519.75;4996311;28;20045;-82
2023/10/01 10:48:03;;;;;;;15.63;10.60;;;;;;;21.53;100.00;93508.09;5009960;28;20080;-84
2023/10/01 10:51:02;;;;;;;14.23;10.55;;;;;;;21.90;100.00;93521.47;5013523;28;20038;-83
2023/10/01 10:53:29;;;;;;;14.35;9.98;;;;;;;21.96;100.00;93517.47;5014279;28;20493;-84
2023/10/01 10:56:35;;;;;;;16.73;11.75;;;;;;;21.93;100.00;93518.13;5014082;28;20049;-84
2023/10/01 10:59:01;;;;;;;14.65;10.68;;;;;;;22.00;100.00;93513.03;5011469;28;20417;-84
2023/10/01 11:01:43;;;;;;;13.00;8.63;;;;;;;22.17;100.00;93515.47;5009119;28;20025;-84
2023/10/01 11:04:09;;;;;;;20.73;12.90;;;;;;;22.18;100.00;93521.59;5012867;28;20057;-83
2023/10/01 11:07:01;;;;;;;18.70;12.30;;;;;;;22.37;100.00;93516.50;5012609;28;20076;-83
2023/10/01 11:09:28;;;;;;;14.55;11.38;;;;;;;22.49;100.00;93515.69;5011514;28;20342;-84
2023/10/01 11:12:04;;;;;;;20.45;13.50;;;;;;;22.22;100.00;93507.31;5009202;28;20319;-84
2023/10/01 11:14:30;;;;;;;17.58;11.80;;;;;;;22.16;100.00;93510.50;5027092;28;20503;-84
2023/10/01 11:16:56;;;;;;;15.52;12.30;;;;;;;22.21;100.00;93512.94;5007803;28;20052;-84
2023/10/01 11:19:28;;;;;;;18.85;12.82;;;;;;;22.23;100.00;93503.50;5009173;28;20417;-84
2023/10/01 11:22:00;;;;;;;19.27;14.27;;;;;;;22.21;100.00;93504.94;5008804;28;20041;-84
2023/10/01 11:24:40;;;;;;;17.73;13.70;;;;;;;22.21;100.00;93500.41;5008965;28;20053;-83
2023/10/01 11:27:14;;;;;;;19.80;14.35;;;;;;;22.18;100.00;93505.59;5009518;28;20624;-84
2023/10/01 11:30:13;;;;;;;20.85;14.90;;;;;;;21.72;100.00;93499.56;5013052;28;20064;-84
2023/10/01 11:32:58;;;;;;;19.02;14.23;;;;;;;21.42;100.00;93494.41;5011628;28;20069;-82
2023/10/01 11:35:34;;;;;;;21.33;14.23;;;;;;;21.41;100.00;93503.47;5013099;28;20036;-83
2023/10/01 11:38:11;;;;;;;20.23;15.40;;;;;;;21.83;100.00;93495.34;5010513;28;20049;-87
2023/10/01 11:43:32;;;;;;;20.00;15.27;;;;;;;22.24;100.00;93485.63;5013947;28;20072;-87
2023/10/01 11:46:19;;;;;;;22.35;16.15;;;;;;;22.30;100.00;93486.19;5025720;28;20111;-86
2023/10/01 11:49:04;;;;;;;16.23;10.82;;;;;;;22.20;100.00;93488.16;5024654;28;20052;-83
2023/10/01 11:51:50;;;;;;;18.70;12.57;;;;;;;22.46;100.00;93487.03;5012635;28;20057;-81
2023/10/01 11:54:20;;;;;;;18.52;14.57;;;;;;;22.65;100.00;93475.75;5012196;28;20073;-83
2023/10/01 11:57:04;;;;;;;18.60;13.80;;;;;;;22.45;100.00;93485.50;5014256;28;20034;-83
2023/10/01 11:59:31;;;;;;;19.90;14.32;;;;;;;22.57;100.00;93490.03;5007005;28;20091;-82
2023/10/01 12:02:15;;;;;;;21.30;15.80;;;;;;;22.39;100.00;93482.28;5012210;28;20038;-83
2023/10/01 12:04:45;;;;;;;19.67;14.13;;;;;;;22.15;100.00;93480.38;5007327;28;20058;-82
2023/10/01 12:07:18;;;;;;;19.77;15.18;;;;;;;22.11;100.00;93474.16;5013846;28;20026;-82
2023/10/01 12:09:53;;;;;;;19.52;14.23;;;;;;;22.55;100.00;93476.25;5013053;28;20425;-83
2023/10/01 12:15:34;;;;;;;17.48;14.57;;;;;;;22.46;100.00;93473.69;5000663;28;20061;-82
2023/10/01 12:18:17;;;;;;;20.98;14.77;;;;;;;22.63;100.00;93462.78;5028042;28;20077;-82
2023/10/01 12:20:54;;;;;;;17.92;13.05;;;;;;;22.67;100.00;93462.84;5014073;28;20493;-83
2023/10/01 12:23:22;;;;;;;18.88;14.52;;;;;;;22.61;100.00;93462.34;5014419;28;20050;-82
2023/10/01 12:28:26;;;;;;;18.60;13.82;;;;;;;22.73;100.00;93461.53;5013926;28;20111;-82
2023/10/01 12:31:00;;;;;;;20.13;11.68;;;;;;;22.79;100.00;93454.06;5013337;28;20045;-84
2023/10/01 12:33:38;;;;;;;15.63;11.13;;;;;;;22.81;100.00;93454.50;5005462;28;20037;-83